Quebec Jean Lesage International Airport

CYQB

July 4, 2022

Time Code Weather Temp. Visibility Ceiling Wind METAR/SPECI
7:00 pm
V
64 °F 30 mi - 230° 230° 9 - 15 kt METAR CYQB 042300Z 23009G15KT 30SM SCT087 SCT200 18/14 A3001 RMK AC4CI1 CI TR SLP167 DENSITY ALT 600FT
6:00 pm
V
66 °F 30 mi 8,000 ft 250° 250° 11 kt METAR CYQB 042200Z 25011KT 30SM SCT050 BKN080 19/14 A3002 RMK SC3AC3 SH S-W TCU ASOCTD CB TOP S SLP168 DENSITY ALT 700FT
5:40 pm
V
64 °F 30 mi 10,000 ft 280° 280° 6 kt METAR CYQB 042140Z 28006KT 250V320 30SM SCT050 BKN100 18/14 A3001 RMK SC4AC2 SLP167 DENSITY ALT 600FT
5:00 pm
V
66 °F 30 mi 7,500 ft 270° 270° 7 kt METAR CYQB 042100Z 27007KT 30SM -SHRA SCT055 BKN075 19/12 A3001 RMK SC3AC4 SLP166 DENSITY ALT 700FT
4:33 pm
V
70 °F 30 mi 11,000 ft 260° 260° 10 kt METAR CYQB 042033Z 26010KT 30SM SCT050 BKN110 BKN220 21/12 A3000 RMK SC3AC4CI1 CI TR DIST SH ALL QUADS SLP162 DENSITY ALT 1000FT
4:25 pm
V
70 °F 30 mi 4,500 ft 250° 250° 10 - 16 kt METAR CYQB 042025Z 25010G16KT 30SM -SHRA BKN045 BKN060 BKN100 21/13 A3001 RMK SC5SC1AC1 CVCTV CLD EMBD SLP164 DENSITY ALT 900FT
4:00 pm
V
70 °F 30 mi 8,000 ft 230° 230° 13 kt METAR CYQB 042000Z 23013KT 30SM FEW050 BKN080 BKN220 21/12 A3000 RMK CU2AC4CI1 CI TR DIST SH N SLP161 DENSITY ALT 1000FT
3:00 pm
V
68 °F 30 mi 8,000 ft 240° 240° 12 - 19 kt METAR CYQB 041900Z 24012G19KT 30SM SCT050 BKN080 BKN220 20/10 A3001 RMK SC4AC2CI1 CI TR DIST TCU TOPS N SLP165 DENSITY ALT 900FT
2:00 pm
V
70 °F 30 mi 8,000 ft 260° 260° 12 - 19 kt METAR CYQB 041800Z 26012G19KT 30SM SCT057 BKN080 BKN220 21/10 A3002 RMK SC4AC3CI1 CI TR SLP170 DENSITY ALT 900FT
1:00 pm
V
66 °F 30 mi 7,000 ft 260° 260° 12 kt METAR CYQB 041700Z 26012KT 30SM FEW055 BKN070 OVC220 19/10 A3004 RMK SC1AC5CI2 SLP175 DENSITY ALT 700FT
12:00 pm
V
66 °F 30 mi 20,000 ft 270° 270° 9 - 15 kt METAR CYQB 041600Z 27009G15KT 230V310 30SM FEW055 BKN200 19/08 A3004 RMK SC1CS6 SLP176 DENSITY ALT 700FT
11:00 am
V
64 °F 30 mi 19,000 ft 290° 290° 6 - 16 kt METAR CYQB 041500Z 29006G16KT 250V330 30SM FEW040 BKN190 18/07 A3005 RMK CU1CS6 SLP180 DENSITY ALT 600FT
10:00 am
V
64 °F 30 mi 24,000 ft 270° 270° 10 - 17 kt METAR CYQB 041400Z 27010G17KT 250V310 30SM FEW048 BKN240 18/07 A3006 RMK CU1CI5 SLP182 DENSITY ALT 500FT
9:00 am
V
61 °F 30 mi - 280° 280° 9 - 16 kt METAR CYQB 041300Z 28009G16KT 240V360 30SM FEW040 SCT240 16/07 A3007 RMK CU1CI3 SLP187 DENSITY ALT 300FT
8:00 am
V
59 °F 30 mi - 250° 250° 9 kt METAR CYQB 041200Z 25009KT 30SM FEW035 FEW240 15/10 A3007 RMK SC1CI1 SLP186
7:00 am
V
57 °F 30 mi - 260° 260° 6 kt METAR CYQB 041100Z 26006KT 210V280 30SM FEW035 FEW240 14/09 A3007 RMK SC1CI1 CI TR SLP185
6:00 am
V
52 °F 30 mi - 230° 230° 5 kt METAR CYQB 041000Z 23005KT 30SM FEW035 11/09 A3006 RMK SC1 SLP183
5:00 am
V
48 °F 15 mi - 230° 230° 8 kt METAR CYQB 040900Z 23008KT 15SM FEW035 FEW060 09/08 A3004 RMK SC1SC1 SC TR SLP176
4:00 am
V
48 °F 15 mi - 210° 210° 6 kt METAR CYQB 040800Z 21006KT 15SM FEW008 FEW240 09/08 A3002 RMK SF1CI1 SF TR SLP170
3:00 am
V
50 °F 15 mi - Var 000° 0 kt METAR CYQB 040700Z 00000KT 15SM FEW008 FEW240 10/09 A3001 RMK SF1CI1 SF TR SLP167
2:00 am
V
50 °F 15 mi - 300° 300° 2 kt METAR CYQB 040600Z 30002KT 15SM FEW008 FEW075 FEW240 10/09 A3001 RMK SF1AC1CI1 SF TR SLP167
1:00 am
V
50 °F 15 mi - Var Var 2 kt METAR CYQB 040500Z VRB02KT 15SM FEW008 FEW040 FEW240 10/09 A3001 RMK SF1SC1CI1 SF TR SLP167
12:00 am
V
54 °F 15 mi - 250° 250° 4 kt METAR CYQB 040400Z 25004KT 15SM FEW040 SCT100 12/11 A3001 RMK SC1AC2 SLP164

July 3, 2022

Time Code Weather Temp. Visibility Ceiling Wind METAR/SPECI
11:00 pm
V
54 °F 15 mi - 220° 220° 6 kt METAR CYQB 040300Z 22006KT 15SM FEW040 SCT110 12/11 A2999 RMK SC1AC2 SLP159
10:00 pm
V
55 °F 15 mi - 240° 240° 7 kt METAR CYQB 040200Z 24007KT 15SM FEW040 FEW100 13/12 A2998 RMK SC1AC1 SLP157
9:00 pm
V
57 °F 30 mi - 260° 260° 5 kt METAR CYQB 040100Z 26005KT 30SM FEW065 SCT100 14/12 A2997 RMK SC2AC1 DIST TCU N SLP151
8:00 pm
V
61 °F 30 mi 10,000 ft Var 000° 0 kt METAR CYQB 040000Z 00000KT 30SM SCT065TCU BKN100 16/12 A2996 RMK TCU4AC2 DIST SH S QUAD SLP149 DENSITY ALT 400FT
7:32 pm
V
63 °F 30 mi 6,500 ft Var Var 2 kt METAR CYQB 032332Z VRB02KT 30SM BKN065TCU BKN150 17/12 A2996 RMK TCU5AC1 DIST SH S QUAD SLP148 DENSITY ALT 500FT
7:13 pm
V
63 °F 30 mi 6,500 ft 330° 330° 5 kt METAR CYQB 032313Z 33005KT 260V040 30SM -SHRA BKN065TCU BKN100 17/11 A2996 RMK TCU5AC1 VIS SW LWR SLP149 DENSITY ALT 500FT
7:00 pm
V
61 °F 30 mi 6,500 ft Var Var 4 kt METAR CYQB 032300Z VRB04KT 30SM VCSH BKN065TCU BKN099 16/11 A2996 RMK TCU6AC1 VIS LWR W SLP150 DENSITY ALT 500FT
6:41 pm
V
61 °F 30 mi 6,400 ft 310° 310° 3 kt METAR CYQB 032241Z 31003KT 30SM VCSH BKN064TCU BKN100 16/12 A2995 RMK TCU6AC1 VCSH ALQDS PRESRR SLP146 DENSITY ALT 400FT
6:18 pm
V
66 °F 30 mi 6,000 ft 290° 290° 9 - 19 kt METAR CYQB 032218Z 29009G19KT 260V330 30SM -SHRA BKN060TCU BKN100 19/08 A2993 RMK TCU6AC1 VIS W LWR PRESRR SLP137 DENSITY ALT 800FT
6:00 pm
V
70 °F 30 mi 6,000 ft 270° 270° 10 - 16 kt METAR CYQB 032200Z 27010G16KT 30SM BKN060 BKN100 21/09 A2991 RMK CU5AC1 DIST SH ALQDS SLP130 DENSITY ALT 1100FT
5:00 pm
V
72 °F 30 mi 6,000 ft 280° 280° 10 kt METAR CYQB 032100Z 28010KT 260V330 30SM BKN060 BKN100 22/07 A2988 RMK CU5AC1 AC TR DIST SH E AND W SLP122 DENSITY ALT 1200FT
4:00 pm
V
73 °F 30 mi 6,500 ft 240° 240° 13 - 19 kt METAR CYQB 032000Z 24013G19KT 30SM BKN065 BKN100 23/12 A2988 RMK SC5AC1 DIST SH N TCU EMBD SLP121 DENSITY ALT 1300FT
3:31 pm
V
73 °F 30 mi 6,500 ft 260° 260° 16 - 23 kt METAR CYQB 031931Z 26016G23KT 30SM BKN065 BKN110 23/12 A2989 RMK SC5AC1 DIST SH NE TCU EMBD SLP123 DENSITY ALT 1300FT
3:00 pm
V
68 °F 30 mi 6,500 ft 230° 230° 14 kt METAR CYQB 031900Z 23014KT 30SM -SHRA FEW030 BKN065 BKN080 20/12 A2989 RMK CU1SC4AC1 TCU EMBD SLP125 DENSITY ALT 1000FT
2:00 pm
V
73 °F 30 mi 6,500 ft 240° 240° 13 - 22 kt METAR CYQB 031800Z 24013G22KT 30SM BKN065 23/11 A2990 RMK SC5 SLP126 DENSITY ALT 1300FT
1:00 pm
V
68 °F 30 mi 5,500 ft 250° 250° 14 - 19 kt METAR CYQB 031700Z 25014G19KT 230V290 30SM BKN055 20/10 A2990 RMK SC5 SLP128 DENSITY ALT 1000FT
12:00 pm
V
70 °F 30 mi - 210° 210° 15 kt METAR CYQB 031600Z 21015KT 30SM SCT055 SCT280 21/10 A2991 RMK CU3CI1 CI TR SLP132 DENSITY ALT 1100FT
11:00 am
V
68 °F 30 mi - 200° 200° 8 kt METAR CYQB 031500Z 20008KT 160V220 30SM FEW060 FEW110 FEW220 20/09 A2992 RMK SC1AC1CI1 AC TR CI TR SLP135 DENSITY ALT 1000FT
10:00 am
V
68 °F 30 mi - 210° 210° 5 kt METAR CYQB 031400Z 21005KT 130V260 30SM FEW060 FEW090 SCT140 20/09 A2993 RMK CU1AC2AC1 CU TR SLP137 DENSITY ALT 900FT
9:00 am
V
64 °F 30 mi 20,000 ft Var Var 2 kt METAR CYQB 031300Z VRB02KT 30SM FEW090 SCT120 BKN200 18/09 A2993 RMK AC2AC2CI1 SLP138 DENSITY ALT 700FT
8:00 am
V
61 °F 30 mi 9,000 ft 040° 040° 3 kt METAR CYQB 031200Z 04003KT 320V070 30SM FEW060 BKN090 BKN190 16/09 A2993 RMK SC1AC4CI2 DIST SH SW SLP138 DENSITY ALT 500FT
7:00 am
V
57 °F 30 mi 10,000 ft Var Var 2 kt METAR CYQB 031100Z VRB02KT 30SM FEW060 BKN100 BKN220 14/09 A2992 RMK SC1AC5CI1 DIST SH SW-W SLP134 DENSITY ALT 300FT
6:00 am
V
57 °F 30 mi 12,000 ft 360° 360° 2 kt METAR CYQB 031000Z 36002KT 30SM FEW040 BKN120 BKN250 14/10 A2990 RMK SC1AC6CI1 SC TR SLP126 DENSITY ALT 300FT
5:00 am
V
57 °F 30 mi 11,000 ft 350° 350° 3 kt METAR CYQB 030900Z 35003KT 30SM FEW040 BKN110 BKN250 14/10 A2988 RMK SC1AC6CI1 SC TR SLP120 DENSITY ALT 300FT
4:00 am
V
57 °F 30 mi 11,000 ft 360° 360° 5 kt METAR CYQB 030800Z 36005KT 30SM FEW040 BKN110 BKN130 14/11 A2986 RMK SC1AC5AC1 SC TR SLP113 DENSITY ALT 300FT
3:00 am
V
57 °F 15 mi - 330° 330° 4 kt METAR CYQB 030700Z CCA 33004KT 15SM SCT110 14/11 A2985 RMK AC4 SLP110 DENSITY ALT 400FT
2:00 am
V
57 °F 15 mi - Var 000° 0 kt METAR CYQB 030600Z 00000KT 15SM FEW080 SCT120 14/11 A2984 RMK AC1AC2 SLP108 DENSITY ALT 300FT
1:00 am
V
61 °F 15 mi 12,000 ft 240° 240° 5 kt METAR CYQB 030500Z 24005KT 220V290 15SM SCT084 BKN120 16/11 A2984 RMK AC4AC2 SLP106 DENSITY ALT 600FT
12:00 am
V
61 °F 15 mi - 240° 240° 6 kt METAR CYQB 030400Z 24006KT 220V290 15SM FEW080 SCT120 16/11 A2981 RMK AC2AC2 SLP099 DENSITY ALT 600FT

July 2, 2022

Time Code Weather Temp. Visibility Ceiling Wind METAR/SPECI
11:00 pm
V
66 °F 15 mi - Var 000° 0 kt METAR CYQB 030300Z 00000KT 15SM SCT080 19/09 A2980 RMK AC3 SLP093 DENSITY ALT 1000FT
10:00 pm
V
66 °F 15 mi 12,000 ft Var Var 2 kt METAR CYQB 030200Z VRB02KT 15SM FEW050 BKN120 19/10 A2980 RMK SC1AC4 SLP093 DENSITY ALT 1000FT
9:00 pm
V
64 °F 25 mi - 240° 240° 6 kt METAR CYQB 030100Z 24006KT 25SM FEW060 FEW080 18/13 A2976 RMK CU1AC1 SLP078 DENSITY ALT 900FT
8:00 pm
V
72 °F 25 mi - 240° 240° 10 - 18 kt METAR CYQB 030000Z 24010G18KT 25SM FEW060 22/12 A2973 RMK SC1 SLP071 DENSITY ALT 1400FT
7:00 pm
V
75 °F 25 mi - 230° 230° 13 - 19 kt METAR CYQB 022300Z 23013G19KT 25SM FEW060 FEW080 24/12 A2973 RMK SC1AC1 SLP069 DENSITY ALT 1600FT
6:00 pm
V
77 °F 25 mi - 230° 230° 17 - 24 kt METAR CYQB 022200Z 23017G24KT 25SM FEW075 25/12 A2973 RMK CU2 SLP069 DENSITY ALT 1700FT
5:00 pm
V
77 °F 25 mi - 250° 250° 19 kt METAR CYQB 022100Z 25019KT 25SM FEW075 25/12 A2973 RMK CU2 SLP068 DENSITY ALT 1700FT
4:00 pm
V
79 °F 30 mi - 260° 260° 14 - 24 kt METAR CYQB 022000Z 26014G24KT 30SM SCT081 26/09 A2973 RMK AC4 SLP068 DENSITY ALT 1800FT
3:00 pm
V
77 °F 30 mi 7,300 ft 260° 260° 18 - 25 kt METAR CYQB 021900Z 26018G25KT 30SM BKN073 25/09 A2972 RMK AC5 SLP066 DENSITY ALT 1800FT
2:00 pm
V
77 °F 30 mi 6,000 ft 250° 250° 16 - 22 kt METAR CYQB 021800Z 25016G22KT 30SM BKN060 25/13 A2972 RMK CU5 SLP065 DENSITY ALT 1700FT
1:00 pm
V
75 °F 30 mi 5,000 ft 260° 260° 9 - 18 kt METAR CYQB 021700Z 26009G18KT 30SM BKN050 24/13 A2972 RMK CU6 TCU ASOCTD SLP067 DENSITY ALT 1600FT
12:00 pm
V
73 °F 30 mi 5,000 ft 270° 270° 12 - 17 kt METAR CYQB 021600Z 27012G17KT 30SM SCT045 BKN050TCU 23/14 A2972 RMK CU4TCU1 TCU TR SLP067 DENSITY ALT 1500FT
11:00 am
V
72 °F 25 mi 4,000 ft 250° 250° 12 - 18 kt METAR CYQB 021500Z 25012G18KT 25SM BKN040 22/15 A2972 RMK CU6 TCU ASOCTD W SLP066 DENSITY ALT 1400FT
Older data

Download our app

Easy access to all aviation weather on your mobile phone and tablet.
With many features not available on the website, like offline support and a personal airport list.

We and third parties follow your internet behavior on our website with cookies. If you continue, we assume you agree with our cookie policy. Learn more